sensor_id;sensor_type;location;lat;lon;timestamp;P1;durP1;ratioP1;P2;durP2;ratioP2
65271;SDS011;51868;48.812;8.198;2023-05-20T00:01:30;4.78;;;3.85;;
65271;SDS011;51868;48.812;8.198;2023-05-20T00:03:58;5.85;;;4.00;;
65271;SDS011;51868;48.812;8.198;2023-05-20T00:06:28;6.65;;;4.38;;
65271;SDS011;51868;48.812;8.198;2023-05-20T00:08:59;5.40;;;3.83;;
65271;SDS011;51868;48.812;8.198;2023-05-20T00:11:27;5.80;;;4.10;;
65271;SDS011;51868;48.812;8.198;2023-05-20T00:13:55;5.70;;;4.00;;
65271;SDS011;51868;48.812;8.198;2023-05-20T00:16:23;6.80;;;4.13;;
65271;SDS011;51868;48.812;8.198;2023-05-20T00:18:52;6.28;;;4.38;;
65271;SDS011;51868;48.812;8.198;2023-05-20T00:21:22;6.35;;;4.53;;
65271;SDS011;51868;48.812;8.198;2023-05-20T00:23:50;7.22;;;4.50;;
65271;SDS011;51868;48.812;8.198;2023-05-20T00:26:19;9.05;;;4.45;;
65271;SDS011;51868;48.812;8.198;2023-05-20T00:28:47;10.32;;;4.65;;
65271;SDS011;51868;48.812;8.198;2023-05-20T00:31:15;6.05;;;4.60;;
65271;SDS011;51868;48.812;8.198;2023-05-20T00:33:43;8.15;;;4.88;;
65271;SDS011;51868;48.812;8.198;2023-05-20T00:36:11;10.38;;;4.50;;
65271;SDS011;51868;48.812;8.198;2023-05-20T00:38:39;7.70;;;5.18;;
65271;SDS011;51868;48.812;8.198;2023-05-20T00:41:07;8.65;;;5.28;;
65271;SDS011;51868;48.812;8.198;2023-05-20T00:43:36;7.53;;;4.72;;
65271;SDS011;51868;48.812;8.198;2023-05-20T00:46:04;8.35;;;4.97;;
65271;SDS011;51868;48.812;8.198;2023-05-20T00:48:35;6.53;;;4.90;;
65271;SDS011;51868;48.812;8.198;2023-05-20T00:51:09;7.45;;;5.50;;
65271;SDS011;51868;48.812;8.198;2023-05-20T00:53:39;9.75;;;5.07;;
65271;SDS011;51868;48.812;8.198;2023-05-20T00:56:08;6.22;;;4.95;;
65271;SDS011;51868;48.812;8.198;2023-05-20T00:58:38;6.93;;;5.05;;
65271;SDS011;51868;48.812;8.198;2023-05-20T01:01:06;7.53;;;4.80;;
65271;SDS011;51868;48.812;8.198;2023-05-20T01:03:34;10.73;;;5.25;;
65271;SDS011;51868;48.812;8.198;2023-05-20T01:06:03;8.38;;;4.65;;
65271;SDS011;51868;48.812;8.198;2023-05-20T01:08:31;10.13;;;4.93;;
65271;SDS011;51868;48.812;8.198;2023-05-20T01:11:01;7.60;;;4.20;;
65271;SDS011;51868;48.812;8.198;2023-05-20T01:13:32;6.90;;;4.10;;
65271;SDS011;51868;48.812;8.198;2023-05-20T01:18:35;7.95;;;4.35;;
65271;SDS011;51868;48.812;8.198;2023-05-20T01:21:10;8.32;;;4.55;;
65271;SDS011;51868;48.812;8.198;2023-05-20T01:23:40;6.03;;;4.45;;
65271;SDS011;51868;48.812;8.198;2023-05-20T01:26:08;6.45;;;4.18;;
65271;SDS011;51868;48.812;8.198;2023-05-20T01:28:39;13.20;;;4.50;;
65271;SDS011;51868;48.812;8.198;2023-05-20T01:31:10;7.47;;;4.18;;
65271;SDS011;51868;48.812;8.198;2023-05-20T01:33:44;7.80;;;4.13;;
65271;SDS011;51868;48.812;8.198;2023-05-20T01:36:19;7.88;;;3.80;;
65271;SDS011;51868;48.812;8.198;2023-05-20T01:38:49;6.15;;;4.00;;
65271;SDS011;51868;48.812;8.198;2023-05-20T01:41:17;5.93;;;4.03;;
65271;SDS011;51868;48.812;8.198;2023-05-20T01:43:46;8.35;;;4.43;;
65271;SDS011;51868;48.812;8.198;2023-05-20T01:46:14;6.05;;;3.95;;
65271;SDS011;51868;48.812;8.198;2023-05-20T01:48:42;6.43;;;4.40;;
65271;SDS011;51868;48.812;8.198;2023-05-20T01:51:10;5.78;;;4.53;;
65271;SDS011;51868;48.812;8.198;2023-05-20T01:53:38;7.30;;;4.38;;
65271;SDS011;51868;48.812;8.198;2023-05-20T01:56:07;5.18;;;3.75;;
65271;SDS011;51868;48.812;8.198;2023-05-20T01:58:35;6.95;;;4.03;;
65271;SDS011;51868;48.812;8.198;2023-05-20T02:01:03;5.18;;;4.32;;
65271;SDS011;51868;48.812;8.198;2023-05-20T02:03:31;7.30;;;4.25;;
65271;SDS011;51868;48.812;8.198;2023-05-20T02:05:59;6.40;;;4.43;;
65271;SDS011;51868;48.812;8.198;2023-05-20T02:08:27;7.35;;;4.00;;
65271;SDS011;51868;48.812;8.198;2023-05-20T02:10:54;7.30;;;4.60;;
65271;SDS011;51868;48.812;8.198;2023-05-20T02:13:24;7.57;;;4.22;;
65271;SDS011;51868;48.812;8.198;2023-05-20T02:15:52;5.72;;;4.05;;
65271;SDS011;51868;48.812;8.198;2023-05-20T02:18:20;7.30;;;4.30;;
65271;SDS011;51868;48.812;8.198;2023-05-20T02:20:47;5.63;;;3.88;;
65271;SDS011;51868;48.812;8.198;2023-05-20T02:23:15;5.63;;;4.18;;
65271;SDS011;51868;48.812;8.198;2023-05-20T02:25:44;8.85;;;4.72;;
65271;SDS011;51868;48.812;8.198;2023-05-20T02:28:12;5.57;;;4.00;;
65271;SDS011;51868;48.812;8.198;2023-05-20T02:30:42;6.20;;;4.20;;
65271;SDS011;51868;48.812;8.198;2023-05-20T02:33:10;5.68;;;3.95;;
65271;SDS011;51868;48.812;8.198;2023-05-20T02:35:39;4.88;;;3.80;;
65271;SDS011;51868;48.812;8.198;2023-05-20T02:38:07;4.90;;;3.97;;
65271;SDS011;51868;48.812;8.198;2023-05-20T02:40:36;6.28;;;4.25;;
65271;SDS011;51868;48.812;8.198;2023-05-20T02:43:06;5.75;;;3.85;;
65271;SDS011;51868;48.812;8.198;2023-05-20T02:45:34;6.68;;;3.85;;
65271;SDS011;51868;48.812;8.198;2023-05-20T02:48:04;5.47;;;4.10;;
65271;SDS011;51868;48.812;8.198;2023-05-20T02:50:32;6.63;;;4.35;;
65271;SDS011;51868;48.812;8.198;2023-05-20T02:53:00;6.10;;;3.95;;
65271;SDS011;51868;48.812;8.198;2023-05-20T02:55:28;4.95;;;3.67;;
65271;SDS011;51868;48.812;8.198;2023-05-20T02:57:56;6.13;;;3.83;;
65271;SDS011;51868;48.812;8.198;2023-05-20T03:00:24;6.18;;;3.72;;
65271;SDS011;51868;48.812;8.198;2023-05-20T03:02:53;5.10;;;3.53;;
65271;SDS011;51868;48.812;8.198;2023-05-20T03:05:23;4.45;;;3.78;;
65271;SDS011;51868;48.812;8.198;2023-05-20T03:07:52;5.53;;;3.50;;
65271;SDS011;51868;48.812;8.198;2023-05-20T03:10:20;6.82;;;4.20;;
65271;SDS011;51868;48.812;8.198;2023-05-20T03:12:49;5.38;;;4.05;;
65271;SDS011;51868;48.812;8.198;2023-05-20T03:15:17;6.10;;;3.92;;
65271;SDS011;51868;48.812;8.198;2023-05-20T03:17:44;8.00;;;3.72;;
65271;SDS011;51868;48.812;8.198;2023-05-20T03:20:14;5.32;;;3.70;;
65271;SDS011;51868;48.812;8.198;2023-05-20T03:22:46;6.10;;;4.22;;
65271;SDS011;51868;48.812;8.198;2023-05-20T03:25:14;5.75;;;3.63;;
65271;SDS011;51868;48.812;8.198;2023-05-20T03:27:42;6.85;;;4.00;;
65271;SDS011;51868;48.812;8.198;2023-05-20T03:30:12;4.97;;;3.58;;
65271;SDS011;51868;48.812;8.198;2023-05-20T03:32:39;5.80;;;3.67;;
65271;SDS011;51868;48.812;8.198;2023-05-20T03:35:09;7.32;;;3.85;;
65271;SDS011;51868;48.812;8.198;2023-05-20T03:37:37;5.60;;;3.92;;
65271;SDS011;51868;48.812;8.198;2023-05-20T03:40:08;6.22;;;4.03;;
65271;SDS011;51868;48.812;8.198;2023-05-20T03:42:37;5.45;;;3.88;;
65271;SDS011;51868;48.812;8.198;2023-05-20T03:45:06;4.95;;;3.47;;
65271;SDS011;51868;48.812;8.198;2023-05-20T03:47:34;5.38;;;3.70;;
65271;SDS011;51868;48.812;8.198;2023-05-20T03:50:03;6.65;;;3.35;;
65271;SDS011;51868;48.812;8.198;2023-05-20T03:52:31;5.35;;;3.47;;
65271;SDS011;51868;48.812;8.198;2023-05-20T03:55:00;4.95;;;3.25;;
65271;SDS011;51868;48.812;8.198;2023-05-20T03:57:29;4.60;;;3.42;;
65271;SDS011;51868;48.812;8.198;2023-05-20T03:59:57;5.22;;;3.30;;
65271;SDS011;51868;48.812;8.198;2023-05-20T04:02:28;5.88;;;3.83;;
65271;SDS011;51868;48.812;8.198;2023-05-20T04:04:56;4.65;;;3.40;;
65271;SDS011;51868;48.812;8.198;2023-05-20T04:07:28;5.93;;;3.57;;
65271;SDS011;51868;48.812;8.198;2023-05-20T04:09:56;6.28;;;3.58;;
65271;SDS011;51868;48.812;8.198;2023-05-20T04:12:26;4.90;;;3.50;;
65271;SDS011;51868;48.812;8.198;2023-05-20T04:14:57;5.22;;;3.58;;
65271;SDS011;51868;48.812;8.198;2023-05-20T04:17:26;8.68;;;3.35;;
65271;SDS011;51868;48.812;8.198;2023-05-20T04:19:58;4.95;;;3.40;;
65271;SDS011;51868;48.812;8.198;2023-05-20T04:22:28;5.85;;;3.60;;
65271;SDS011;51868;48.812;8.198;2023-05-20T04:24:55;4.00;;;3.30;;
65271;SDS011;51868;48.812;8.198;2023-05-20T04:27:24;7.70;;;3.90;;
65271;SDS011;51868;48.812;8.198;2023-05-20T04:29:52;5.78;;;3.38;;
65271;SDS011;51868;48.812;8.198;2023-05-20T04:32:21;5.57;;;3.70;;
65271;SDS011;51868;48.812;8.198;2023-05-20T04:34:49;6.38;;;3.30;;
65271;SDS011;51868;48.812;8.198;2023-05-20T04:37:21;5.53;;;3.27;;
65271;SDS011;51868;48.812;8.198;2023-05-20T04:39:49;5.32;;;3.63;;
65271;SDS011;51868;48.812;8.198;2023-05-20T04:42:17;5.40;;;3.15;;
65271;SDS011;51868;48.812;8.198;2023-05-20T04:44:47;5.45;;;3.30;;
65271;SDS011;51868;48.812;8.198;2023-05-20T04:47:15;4.55;;;3.35;;
65271;SDS011;51868;48.812;8.198;2023-05-20T04:49:44;4.75;;;3.30;;
65271;SDS011;51868;48.812;8.198;2023-05-20T04:52:12;5.30;;;3.42;;
65271;SDS011;51868;48.812;8.198;2023-05-20T04:54:40;5.15;;;4.07;;
65271;SDS011;51868;48.812;8.198;2023-05-20T04:57:08;4.05;;;3.65;;
65271;SDS011;51868;48.812;8.198;2023-05-20T04:59:36;5.88;;;3.67;;
65271;SDS011;51868;48.812;8.198;2023-05-20T05:02:04;4.50;;;3.70;;
65271;SDS011;51868;48.812;8.198;2023-05-20T05:04:34;4.85;;;3.58;;
65271;SDS011;51868;48.812;8.198;2023-05-20T05:07:03;6.88;;;3.63;;
65271;SDS011;51868;48.812;8.198;2023-05-20T05:09:31;4.57;;;3.30;;
65271;SDS011;51868;48.812;8.198;2023-05-20T05:12:00;7.57;;;3.60;;
65271;SDS011;51868;48.812;8.198;2023-05-20T05:14:28;5.97;;;4.00;;
65271;SDS011;51868;48.812;8.198;2023-05-20T05:16:56;6.15;;;3.88;;
65271;SDS011;51868;48.812;8.198;2023-05-20T05:19:24;6.55;;;3.63;;
65271;SDS011;51868;48.812;8.198;2023-05-20T05:21:53;5.72;;;3.40;;
65271;SDS011;51868;48.812;8.198;2023-05-20T05:24:22;6.20;;;3.95;;
65271;SDS011;51868;48.812;8.198;2023-05-20T05:26:52;6.63;;;4.30;;
65271;SDS011;51868;48.812;8.198;2023-05-20T05:29:20;5.25;;;3.97;;
65271;SDS011;51868;48.812;8.198;2023-05-20T05:32:04;5.68;;;3.88;;
65271;SDS011;51868;48.812;8.198;2023-05-20T05:35:01;6.60;;;4.07;;
65271;SDS011;51868;48.812;8.198;2023-05-20T05:41:29;4.57;;;3.72;;
65271;SDS011;51868;48.812;8.198;2023-05-20T05:44:06;6.18;;;4.10;;
65271;SDS011;51868;48.812;8.198;2023-05-20T05:49:31;6.03;;;3.88;;
65271;SDS011;51868;48.812;8.198;2023-05-20T05:51:59;8.32;;;4.43;;
65271;SDS011;51868;48.812;8.198;2023-05-20T05:54:27;7.07;;;4.13;;
65271;SDS011;51868;48.812;8.198;2023-05-20T05:56:57;5.72;;;3.72;;
65271;SDS011;51868;48.812;8.198;2023-05-20T05:59:35;4.80;;;3.90;;
65271;SDS011;51868;48.812;8.198;2023-05-20T06:02:03;5.05;;;3.88;;
65271;SDS011;51868;48.812;8.198;2023-05-20T06:04:35;9.65;;;5.18;;
65271;SDS011;51868;48.812;8.198;2023-05-20T06:07:03;7.75;;;4.05;;
65271;SDS011;51868;48.812;8.198;2023-05-20T06:09:37;5.50;;;4.13;;
65271;SDS011;51868;48.812;8.198;2023-05-20T06:12:08;5.13;;;4.05;;
65271;SDS011;51868;48.812;8.198;2023-05-20T06:14:57;6.13;;;4.60;;
65271;SDS011;51868;48.812;8.198;2023-05-20T06:17:39;6.47;;;3.85;;
65271;SDS011;51868;48.812;8.198;2023-05-20T06:20:33;7.95;;;4.53;;
65271;SDS011;51868;48.812;8.198;2023-05-20T06:23:06;5.80;;;3.95;;
65271;SDS011;51868;48.812;8.198;2023-05-20T06:25:49;5.30;;;3.60;;
65271;SDS011;51868;48.812;8.198;2023-05-20T06:28:37;7.25;;;3.95;;
65271;SDS011;51868;48.812;8.198;2023-05-20T06:31:20;7.00;;;3.83;;
65271;SDS011;51868;48.812;8.198;2023-05-20T06:34:03;5.80;;;3.85;;
65271;SDS011;51868;48.812;8.198;2023-05-20T06:36:35;6.90;;;3.40;;
65271;SDS011;51868;48.812;8.198;2023-05-20T06:39:03;6.82;;;3.45;;
65271;SDS011;51868;48.812;8.198;2023-05-20T06:41:39;7.07;;;4.20;;
65271;SDS011;51868;48.812;8.198;2023-05-20T06:44:21;6.40;;;4.18;;
65271;SDS011;51868;48.812;8.198;2023-05-20T06:47:03;5.68;;;3.72;;
65271;SDS011;51868;48.812;8.198;2023-05-20T06:49:57;6.80;;;4.03;;
65271;SDS011;51868;48.812;8.198;2023-05-20T06:52:35;7.35;;;3.95;;
65271;SDS011;51868;48.812;8.198;2023-05-20T06:56:25;7.90;;;3.95;;
65271;SDS011;51868;48.812;8.198;2023-05-20T06:59:09;5.88;;;3.90;;
65271;SDS011;51868;48.812;8.198;2023-05-20T07:03:23;3.85;;;3.30;;
65271;SDS011;51868;48.812;8.198;2023-05-20T07:13:10;4.55;;;3.55;;
65271;SDS011;51868;48.812;8.198;2023-05-20T07:15:40;6.07;;;4.30;;
65271;SDS011;51868;48.812;8.198;2023-05-20T07:18:08;10.25;;;4.20;;
65271;SDS011;51868;48.812;8.198;2023-05-20T07:20:37;13.73;;;4.05;;
65271;SDS011;51868;48.812;8.198;2023-05-20T07:26:31;4.88;;;3.60;;
65271;SDS011;51868;48.812;8.198;2023-05-20T07:29:02;4.13;;;3.38;;
65271;SDS011;51868;48.812;8.198;2023-05-20T07:31:33;6.85;;;4.28;;
65271;SDS011;51868;48.812;8.198;2023-05-20T07:37:43;7.13;;;3.92;;
65271;SDS011;51868;48.812;8.198;2023-05-20T07:40:11;5.55;;;4.22;;
65271;SDS011;51868;48.812;8.198;2023-05-20T07:42:42;7.40;;;4.50;;
65271;SDS011;51868;48.812;8.198;2023-05-20T07:45:10;6.85;;;4.72;;
65271;SDS011;51868;48.812;8.198;2023-05-20T07:47:41;4.78;;;4.18;;
65271;SDS011;51868;48.812;8.198;2023-05-20T07:50:14;6.03;;;3.95;;
65271;SDS011;51868;48.812;8.198;2023-05-20T07:52:47;6.95;;;4.40;;
65271;SDS011;51868;48.812;8.198;2023-05-20T07:55:22;7.10;;;4.45;;
65271;SDS011;51868;48.812;8.198;2023-05-20T07:57:52;8.00;;;4.13;;
65271;SDS011;51868;48.812;8.198;2023-05-20T08:00:20;8.00;;;4.13;;
65271;SDS011;51868;48.812;8.198;2023-05-20T08:02:51;5.22;;;4.28;;
65271;SDS011;51868;48.812;8.198;2023-05-20T08:05:24;8.32;;;4.22;;
65271;SDS011;51868;48.812;8.198;2023-05-20T08:07:52;4.78;;;3.88;;
65271;SDS011;51868;48.812;8.198;2023-05-20T08:10:25;7.45;;;4.07;;
65271;SDS011;51868;48.812;8.198;2023-05-20T08:13:07;5.28;;;3.90;;
65271;SDS011;51868;48.812;8.198;2023-05-20T08:15:43;5.88;;;4.00;;
65271;SDS011;51868;48.812;8.198;2023-05-20T08:18:39;6.68;;;4.25;;
65271;SDS011;51868;48.812;8.198;2023-05-20T08:21:15;5.47;;;4.50;;
65271;SDS011;51868;48.812;8.198;2023-05-20T08:23:55;5.25;;;4.22;;
65271;SDS011;51868;48.812;8.198;2023-05-20T08:26:30;6.78;;;4.20;;
65271;SDS011;51868;48.812;8.198;2023-05-20T08:29:01;9.02;;;4.45;;
65271;SDS011;51868;48.812;8.198;2023-05-20T08:31:39;5.70;;;4.00;;
65271;SDS011;51868;48.812;8.198;2023-05-20T08:34:16;5.15;;;4.40;;
65271;SDS011;51868;48.812;8.198;2023-05-20T08:36:50;6.63;;;4.47;;
65271;SDS011;51868;48.812;8.198;2023-05-20T08:39:28;6.90;;;4.78;;
65271;SDS011;51868;48.812;8.198;2023-05-20T08:42:47;6.80;;;4.13;;
65271;SDS011;51868;48.812;8.198;2023-05-20T08:49:20;6.97;;;4.60;;
65271;SDS011;51868;48.812;8.198;2023-05-20T09:04:10;6.35;;;4.88;;
65271;SDS011;51868;48.812;8.198;2023-05-20T09:22:12;7.03;;;4.75;;
65271;SDS011;51868;48.812;8.198;2023-05-20T09:25:13;6.07;;;4.90;;
65271;SDS011;51868;48.812;8.198;2023-05-20T09:31:36;7.28;;;5.00;;
65271;SDS011;51868;48.812;8.198;2023-05-20T09:34:12;10.98;;;5.22;;
65271;SDS011;51868;48.812;8.198;2023-05-20T09:37:15;9.63;;;4.30;;
65271;SDS011;51868;48.812;8.198;2023-05-20T09:40:37;8.38;;;4.60;;
65271;SDS011;51868;48.812;8.198;2023-05-20T09:43:29;6.10;;;4.40;;
65271;SDS011;51868;48.812;8.198;2023-05-20T09:46:31;5.32;;;4.68;;
65271;SDS011;51868;48.812;8.198;2023-05-20T09:49:25;10.40;;;5.10;;
65271;SDS011;51868;48.812;8.198;2023-05-20T09:52:03;5.88;;;4.75;;
65271;SDS011;51868;48.812;8.198;2023-05-20T09:58:21;6.70;;;4.30;;
65271;SDS011;51868;48.812;8.198;2023-05-20T10:00:55;5.65;;;4.72;;
65271;SDS011;51868;48.812;8.198;2023-05-20T10:03:23;5.65;;;5.03;;
65271;SDS011;51868;48.812;8.198;2023-05-20T10:06:00;9.05;;;5.18;;
65271;SDS011;51868;48.812;8.198;2023-05-20T10:08:56;5.85;;;4.75;;
65271;SDS011;51868;48.812;8.198;2023-05-20T10:14:51;5.68;;;4.85;;
65271;SDS011;51868;48.812;8.198;2023-05-20T10:15:57;7.07;;;4.65;;
65271;SDS011;51868;48.812;8.198;2023-05-20T10:18:46;5.93;;;5.00;;
65271;SDS011;51868;48.812;8.198;2023-05-20T10:22:12;5.78;;;4.32;;
65271;SDS011;51868;48.812;8.198;2023-05-20T10:26:11;7.20;;;4.57;;
65271;SDS011;51868;48.812;8.198;2023-05-20T10:29:27;7.20;;;4.70;;
65271;SDS011;51868;48.812;8.198;2023-05-20T10:32:47;7.18;;;4.70;;
65271;SDS011;51868;48.812;8.198;2023-05-20T10:40:44;7.95;;;4.30;;
65271;SDS011;51868;48.812;8.198;2023-05-20T10:58:35;7.65;;;4.68;;
65271;SDS011;51868;48.812;8.198;2023-05-20T11:01:51;4.65;;;4.05;;
65271;SDS011;51868;48.812;8.198;2023-05-20T11:04:30;11.40;;;4.95;;
65271;SDS011;51868;48.812;8.198;2023-05-20T11:07:40;6.50;;;5.20;;
65271;SDS011;51868;48.812;8.198;2023-05-20T11:10:25;6.38;;;4.68;;
65271;SDS011;51868;48.812;8.198;2023-05-20T11:13:25;5.70;;;4.38;;
65271;SDS011;51868;48.812;8.198;2023-05-20T11:16:51;5.07;;;4.35;;
65271;SDS011;51868;48.812;8.198;2023-05-20T11:23:51;5.47;;;4.68;;
65271;SDS011;51868;48.812;8.198;2023-05-20T11:26:48;6.97;;;4.45;;
65271;SDS011;51868;48.812;8.198;2023-05-20T11:29:46;5.38;;;4.70;;
65271;SDS011;51868;48.812;8.198;2023-05-20T11:40:54;5.57;;;4.50;;
65271;SDS011;51868;48.812;8.198;2023-05-20T11:43:41;5.13;;;4.63;;
65271;SDS011;51868;48.812;8.198;2023-05-20T11:46:48;5.25;;;4.28;;
65271;SDS011;51868;48.812;8.198;2023-05-20T11:51:08;4.57;;;4.10;;
65271;SDS011;51868;48.812;8.198;2023-05-20T11:53:57;5.00;;;4.50;;
65271;SDS011;51868;48.812;8.198;2023-05-20T11:59:29;15.70;;;4.78;;
65271;SDS011;51868;48.812;8.198;2023-05-20T12:02:13;5.68;;;4.20;;
65271;SDS011;51868;48.812;8.198;2023-05-20T12:05:01;4.38;;;3.97;;
65271;SDS011;51868;48.812;8.198;2023-05-20T12:08:08;6.22;;;4.47;;
65271;SDS011;51868;48.812;8.198;2023-05-20T12:21:45;10.07;;;5.13;;
65271;SDS011;51868;48.812;8.198;2023-05-20T12:49:14;5.00;;;4.35;;
65271;SDS011;51868;48.812;8.198;2023-05-20T12:52:03;5.55;;;5.05;;
65271;SDS011;51868;48.812;8.198;2023-05-20T12:55:18;9.43;;;4.22;;
65271;SDS011;51868;48.812;8.198;2023-05-20T13:01:43;6.40;;;4.38;;
65271;SDS011;51868;48.812;8.198;2023-05-20T13:04:59;5.32;;;4.72;;
65271;SDS011;51868;48.812;8.198;2023-05-20T13:08:03;5.35;;;4.85;;
65271;SDS011;51868;48.812;8.198;2023-05-20T13:10:49;7.05;;;5.28;;
65271;SDS011;51868;48.812;8.198;2023-05-20T13:20:29;6.90;;;4.95;;
65271;SDS011;51868;48.812;8.198;2023-05-20T13:23:46;7.40;;;5.40;;
65271;SDS011;51868;48.812;8.198;2023-05-20T13:41:02;7.03;;;5.10;;
65271;SDS011;51868;48.812;8.198;2023-05-20T13:43:46;6.03;;;5.30;;
65271;SDS011;51868;48.812;8.198;2023-05-20T13:47:41;6.00;;;5.10;;
65271;SDS011;51868;48.812;8.198;2023-05-20T13:51:18;6.50;;;5.00;;
65271;SDS011;51868;48.812;8.198;2023-05-20T13:57:33;5.65;;;5.13;;
65271;SDS011;51868;48.812;8.198;2023-05-20T14:00:36;8.15;;;5.38;;
65271;SDS011;51868;48.812;8.198;2023-05-20T14:03:19;7.07;;;5.07;;
65271;SDS011;51868;48.812;8.198;2023-05-20T14:06:21;5.75;;;5.13;;
65271;SDS011;51868;48.812;8.198;2023-05-20T14:09:25;8.80;;;5.22;;
65271;SDS011;51868;48.812;8.198;2023-05-20T14:19:42;6.68;;;5.50;;
65271;SDS011;51868;48.812;8.198;2023-05-20T14:22:32;6.65;;;5.40;;
65271;SDS011;51868;48.812;8.198;2023-05-20T14:31:24;6.75;;;4.90;;
65271;SDS011;51868;48.812;8.198;2023-05-20T14:33:59;7.05;;;5.03;;
65271;SDS011;51868;48.812;8.198;2023-05-20T14:36:27;6.22;;;4.90;;
65271;SDS011;51868;48.812;8.198;2023-05-20T14:39:03;10.15;;;5.13;;
65271;SDS011;51868;48.812;8.198;2023-05-20T14:41:42;7.80;;;5.50;;
65271;SDS011;51868;48.812;8.198;2023-05-20T14:48:05;6.00;;;5.40;;
65271;SDS011;51868;48.812;8.198;2023-05-20T14:50:51;5.40;;;4.90;;
65271;SDS011;51868;48.812;8.198;2023-05-20T14:53:19;7.38;;;5.22;;
65271;SDS011;51868;48.812;8.198;2023-05-20T14:59:23;7.70;;;4.90;;
65271;SDS011;51868;48.812;8.198;2023-05-20T15:04:16;6.75;;;5.25;;
65271;SDS011;51868;48.812;8.198;2023-05-20T15:07:11;5.85;;;5.30;;
65271;SDS011;51868;48.812;8.198;2023-05-20T15:09:50;8.02;;;5.60;;
65271;SDS011;51868;48.812;8.198;2023-05-20T15:12:18;8.07;;;4.93;;
65271;SDS011;51868;48.812;8.198;2023-05-20T15:14:46;8.30;;;5.40;;
65271;SDS011;51868;48.812;8.198;2023-05-20T15:17:29;27.27;;;6.10;;
65271;SDS011;51868;48.812;8.198;2023-05-20T15:20:13;7.85;;;5.38;;
65271;SDS011;51868;48.812;8.198;2023-05-20T15:22:41;8.75;;;5.35;;
65271;SDS011;51868;48.812;8.198;2023-05-20T15:25:11;9.65;;;5.70;;
65271;SDS011;51868;48.812;8.198;2023-05-20T15:27:39;12.10;;;5.38;;
65271;SDS011;51868;48.812;8.198;2023-05-20T15:30:08;7.72;;;5.47;;
65271;SDS011;51868;48.812;8.198;2023-05-20T15:32:36;6.32;;;5.20;;
65271;SDS011;51868;48.812;8.198;2023-05-20T15:35:05;5.40;;;4.88;;
65271;SDS011;51868;48.812;8.198;2023-05-20T15:37:40;7.20;;;5.50;;
65271;SDS011;51868;48.812;8.198;2023-05-20T15:40:09;6.68;;;5.95;;
65271;SDS011;51868;48.812;8.198;2023-05-20T15:43:05;8.25;;;5.68;;
65271;SDS011;51868;48.812;8.198;2023-05-20T15:45:45;7.30;;;5.85;;
65271;SDS011;51868;48.812;8.198;2023-05-20T15:48:17;6.05;;;5.43;;
65271;SDS011;51868;48.812;8.198;2023-05-20T15:50:47;15.57;;;6.13;;
65271;SDS011;51868;48.812;8.198;2023-05-20T15:53:17;14.40;;;5.40;;
65271;SDS011;51868;48.812;8.198;2023-05-20T15:55:51;10.65;;;6.10;;
65271;SDS011;51868;48.812;8.198;2023-05-20T15:58:25;5.82;;;4.90;;
65271;SDS011;51868;48.812;8.198;2023-05-20T16:00:53;7.38;;;5.03;;
65271;SDS011;51868;48.812;8.198;2023-05-20T16:03:21;8.02;;;5.43;;
65271;SDS011;51868;48.812;8.198;2023-05-20T16:05:51;6.32;;;5.03;;
65271;SDS011;51868;48.812;8.198;2023-05-20T16:08:20;7.03;;;5.10;;
65271;SDS011;51868;48.812;8.198;2023-05-20T16:10:55;6.05;;;5.43;;
65271;SDS011;51868;48.812;8.198;2023-05-20T16:13:25;9.15;;;6.10;;
65271;SDS011;51868;48.812;8.198;2023-05-20T16:15:55;7.55;;;5.63;;
65271;SDS011;51868;48.812;8.198;2023-05-20T16:18:24;7.40;;;5.72;;
65271;SDS011;51868;48.812;8.198;2023-05-20T16:20:54;8.18;;;5.60;;
65271;SDS011;51868;48.812;8.198;2023-05-20T16:23:23;7.18;;;5.35;;
65271;SDS011;51868;48.812;8.198;2023-05-20T16:25:59;7.35;;;5.60;;
65271;SDS011;51868;48.812;8.198;2023-05-20T16:28:26;42.42;;;6.82;;
65271;SDS011;51868;48.812;8.198;2023-05-20T16:30:54;8.85;;;5.15;;
65271;SDS011;51868;48.812;8.198;2023-05-20T16:33:23;6.60;;;5.90;;
65271;SDS011;51868;48.812;8.198;2023-05-20T16:35:51;6.68;;;5.80;;
65271;SDS011;51868;48.812;8.198;2023-05-20T16:38:20;19.17;;;6.72;;
65271;SDS011;51868;48.812;8.198;2023-05-20T16:40:50;8.70;;;6.07;;
65271;SDS011;51868;48.812;8.198;2023-05-20T16:43:29;7.18;;;5.45;;
65271;SDS011;51868;48.812;8.198;2023-05-20T16:45:57;93.22;;;9.55;;
65271;SDS011;51868;48.812;8.198;2023-05-20T16:48:27;6.93;;;5.47;;
65271;SDS011;51868;48.812;8.198;2023-05-20T16:50:55;8.85;;;5.85;;
65271;SDS011;51868;48.812;8.198;2023-05-20T16:53:23;11.40;;;6.13;;
65271;SDS011;51868;48.812;8.198;2023-05-20T16:55:53;10.32;;;6.28;;
65271;SDS011;51868;48.812;8.198;2023-05-20T16:58:21;10.25;;;6.20;;
65271;SDS011;51868;48.812;8.198;2023-05-20T17:19:17;7.50;;;6.53;;
65271;SDS011;51868;48.812;8.198;2023-05-20T17:21:45;8.50;;;6.03;;
65271;SDS011;51868;48.812;8.198;2023-05-20T17:24:13;7.70;;;6.15;;
65271;SDS011;51868;48.812;8.198;2023-05-20T17:26:43;8.18;;;6.10;;
65271;SDS011;51868;48.812;8.198;2023-05-20T17:29:11;6.70;;;5.88;;
65271;SDS011;51868;48.812;8.198;2023-05-20T17:31:53;7.53;;;6.23;;
65271;SDS011;51868;48.812;8.198;2023-05-20T17:37:15;7.85;;;6.10;;
65271;SDS011;51868;48.812;8.198;2023-05-20T17:39:43;7.93;;;5.88;;
65271;SDS011;51868;48.812;8.198;2023-05-20T17:42:11;13.38;;;6.60;;
65271;SDS011;51868;48.812;8.198;2023-05-20T17:44:39;8.63;;;6.47;;
65271;SDS011;51868;48.812;8.198;2023-05-20T17:47:07;7.30;;;5.55;;
65271;SDS011;51868;48.812;8.198;2023-05-20T17:49:37;6.72;;;6.00;;
65271;SDS011;51868;48.812;8.198;2023-05-20T17:52:06;6.97;;;6.28;;
65271;SDS011;51868;48.812;8.198;2023-05-20T17:54:34;8.07;;;6.68;;
65271;SDS011;51868;48.812;8.198;2023-05-20T17:57:02;10.63;;;6.97;;
65271;SDS011;51868;48.812;8.198;2023-05-20T17:59:30;10.93;;;6.60;;
65271;SDS011;51868;48.812;8.198;2023-05-20T18:02:02;17.08;;;7.35;;
65271;SDS011;51868;48.812;8.198;2023-05-20T18:04:31;28.33;;;8.20;;
65271;SDS011;51868;48.812;8.198;2023-05-20T18:06:59;13.93;;;7.13;;
65271;SDS011;51868;48.812;8.198;2023-05-20T18:09:30;10.35;;;8.25;;
65271;SDS011;51868;48.812;8.198;2023-05-20T18:11:58;10.70;;;8.43;;
65271;SDS011;51868;48.812;8.198;2023-05-20T18:14:26;9.00;;;8.10;;
65271;SDS011;51868;48.812;8.198;2023-05-20T18:16:54;13.30;;;8.35;;
65271;SDS011;51868;48.812;8.198;2023-05-20T18:19:22;12.95;;;7.57;;
65271;SDS011;51868;48.812;8.198;2023-05-20T18:21:51;18.20;;;8.93;;
65271;SDS011;51868;48.812;8.198;2023-05-20T18:24:19;11.07;;;8.35;;
65271;SDS011;51868;48.812;8.198;2023-05-20T18:26:48;10.18;;;7.97;;
65271;SDS011;51868;48.812;8.198;2023-05-20T18:29:31;11.05;;;8.77;;
65271;SDS011;51868;48.812;8.198;2023-05-20T18:31:59;9.45;;;8.38;;
65271;SDS011;51868;48.812;8.198;2023-05-20T18:34:27;12.10;;;8.93;;
65271;SDS011;51868;48.812;8.198;2023-05-20T18:36:55;11.55;;;8.60;;
65271;SDS011;51868;48.812;8.198;2023-05-20T18:39:23;9.02;;;8.13;;
65271;SDS011;51868;48.812;8.198;2023-05-20T18:41:52;8.90;;;7.72;;
65271;SDS011;51868;48.812;8.198;2023-05-20T18:44:20;10.20;;;8.45;;
65271;SDS011;51868;48.812;8.198;2023-05-20T18:46:48;10.30;;;8.32;;
65271;SDS011;51868;48.812;8.198;2023-05-20T18:49:16;14.43;;;9.38;;
65271;SDS011;51868;48.812;8.198;2023-05-20T18:51:50;10.13;;;8.75;;
65271;SDS011;51868;48.812;8.198;2023-05-20T18:54:21;12.63;;;9.50;;
65271;SDS011;51868;48.812;8.198;2023-05-20T18:56:53;13.38;;;9.23;;
65271;SDS011;51868;48.812;8.198;2023-05-20T19:00:04;10.07;;;8.90;;
65271;SDS011;51868;48.812;8.198;2023-05-20T19:03:20;11.45;;;8.77;;
65271;SDS011;51868;48.812;8.198;2023-05-20T19:06:02;11.73;;;9.48;;
65271;SDS011;51868;48.812;8.198;2023-05-20T19:08:35;12.90;;;9.75;;
65271;SDS011;51868;48.812;8.198;2023-05-20T19:11:35;11.52;;;8.80;;